Aviation Digital Data Service (ADDS)

Output produced by METARs form (0942 UTC 18 January 2022)
found at http://www.aviationweather.gov/metar/data/
 
PLCH 180900Z 13008KT 9999 FEW020 25/24 Q1008
PLCH 180800Z 11005KT 9999 FEW020 25/24 Q1008
PLCH 180700Z 12004KT 9999 FEW020 26/24 Q1008
PLCH 180600Z 10004KT 9999 FEW019 26/24 Q1008
PLCH 180500Z 10005KT 9999 FEW018TCU 26/24 Q1006
PLCH 180400Z 10009KT 9999 FEW019 27/24 Q1006
PLCH 180300Z 11008KT 9999 SCT019 27/24 Q1006
PLCH 180200Z 11009KT 9999 SCT020 28/25 Q1005
PLCH 180100Z 12006KT 9999 SCT020 28/25 Q1005
PLCH 180000Z 11012KT 9999 SCT020 28/23 Q1006
PLCH 172300Z 08012KT 9999 SCT020 29/25 Q1007
PLCH 172200Z 10013KT 9999 SCT020 29/25 Q1008
PLCH 172100Z 07007KT 9999 FEW020 28/24 Q1009
PLCH 172000Z 11014KT 9999 SCT020 27/24 Q1009
PLCH 171900Z 13014KT 9999 FEW020 27/24 Q1009
PLCH 171800Z 10004KT 9999 FEW020 26/24 Q1008
PLCH 171700Z 10004KT 9999 FEW019 25/23 Q1008
PLCH 171600Z 10006KT 9999 FEW020 25/23 Q1007
PLCH 171500Z 10006KT 9999 FEW020 25/23 Q1007
PLCH 171400Z 10006KT 9999 FEW020 25/23 Q1007
PLCH 171300Z 10007KT 9999 SCT019 25/23 Q1007
PLCH 171200Z 10005KT 9999 FEW020 25/23 Q1008
PLCH 171100Z 11005KT 9999 FEW020 25/24 Q1008
PLCH 171000Z 11005KT 9999 FEW019 25/24 Q1009
TAF PLCH 180509Z 1806/1906 10006KT 9999 FEW018